Weather observations for the past three days for
Atwood-Rawlins County City-County Airport
Metric (Imperial)
Date Time (cdt) Wind (kph) Vis. (km) Weather Sky Cond. Temperature (ºC) Relative Humidity Wind Chill (°C) Heat Index (°C) Pressure Precipitation (cm)
Air Dwpt 6 hour altimeter (cm) sea level (mb) 1 hr 3 hr 6 hr
Max. Min.
10 09:35 SW 13 16.09 Overcast OVC060 12.2 7.5 73% 77.01 0.0
10 09:15 SW 7 16.09 Overcast BKN060 OVC070 11.8 7 73% 77.01 0.0
10 08:55 S 6 16.09 Overcast SCT060 BKN070 OVC080 11.2 7.1 76% 76.99 0.0
10 08:35 SW 6 16.09 Overcast OVC070 11.2 7.3 77% 76.99 0.0
10 08:15 SW 6 16.09 Light Rain BKN070 11.2 6.9 75% 76.96 0.0
10 07:55 Calm 16.09 Overcast OVC070 10.9 6.8 76% 76.94 0.0
10 07:35 NW 9 16.09 Overcast SCT055 OVC070 10.5 6.8 78% 76.91 0.0
10 07:15 NW 13 16.09 Overcast OVC070 10.2 6.1 76% 76.89 0.0
10 06:55 NW 9 16.09 Mostly Cloudy BKN070 BKN100 BKN120 9.9 5.8 12.2 9.5 76% 9 76.86 0.0
10 06:35 NW 7 16.09 Fair CLR 9.5 6.2 80% 9 76.84 0.0
10 06:15 NW 9 16.09 Partly Cloudy SCT070 SCT100 10 5.9 76% 9 76.84 0.0
10 05:55 N 11 16.09 Partly Cloudy SCT038 SCT050 SCT070 10 6.3 78% 9 76.84 0.0
10 05:35 N 9 16.09 Light Rain SCT038 SCT050 BKN075 10.6 6.4 75% 76.84 0.0
10 05:15 N 11 16.09 Mostly Cloudy BKN075 BKN100 10.8 6.7 76% 76.81 0.0
10 04:55 N 11 16.09 Overcast OVC075 11 6.9 76% 76.81 0.0
10 04:35 NE 9 16.09 Overcast OVC075 11.1 7.1 77% 76.76 0.0
10 04:15 N 9 16.09 Mostly Cloudy BKN075 BKN110 11.1 7.4 78% 76.76 0.0
10 03:55 N 7 16.09 Partly Cloudy SCT075 SCT110 11.2 7.3 77% 76.76 0.0
10 03:35 NW 9 16.09 Mostly Cloudy BKN075 11.1 8.1 82% 76.76 0.0
10 03:15 NW 9 16.09 Overcast BKN075 OVC085 11.5 8.1 80% 76.76 0.0
10 02:55 N 11 16.09 Mostly Cloudy BKN085 11.3 7.8 79% 76.71 0.0
10 02:35 N 13 16.09 Overcast OVC085 11.5 8.2 80% 76.71 0.0
10 02:15 N 13 16.09 Overcast BKN085 OVC100 12 8 77% 76.71 0.0
10 01:55 SE 11 16.09 Mostly Cloudy BKN100 12 7.5 74% 76.66 0.0
10 01:35 E 11 16.09 Partly Cloudy SCT100 12 7.3 73% 76.63 0.0
10 01:15 NE 13 16.09 Fair CLR 12.1 7.8 75% 76.63 0.0
10 00:55 NE 15 16.09 Partly Cloudy SCT028 SCT034 SCT055 12.2 8.2 23.5 12.2 77% 76.61 0.0
10 00:35 E 26 16.09 Light Rain SCT030 SCT037 OVC075 12.5 8.8 78% 76.56 0.0
10 00:15 Calm 16.09 Light Rain SCT028 SCT047 OVC075 12.9 9 77% 76.71 0.0
09 23:55 N 6 16.09 Rain SCT046 BKN060 OVC070 13.3 8.3 72% 76.71 0.0
09 23:35 N 13 16.09 Light Rain OVC070 14 8.1 68% 76.68 0.0
09 23:15 NE 19 16.09 Light Rain OVC080 15.1 6.5 57% 76.63 0.0
09 22:55 NE 22 16.09 Mostly Cloudy BKN090 BKN110 16 5 48% 76.58 0.0
09 22:35 NE 20 16.09 Partly Cloudy SCT110 16 5 48% 76.53 0.0
09 22:15 NE 20 16.09 Fair CLR 16 5 48% 76.48 0.0
09 21:55 NE 26 G 41 16.09 Fair CLR 16.3 4.7 46% 76.4 0.0
09 21:35 NE 31 G 37 16.09 Fair CLR 16.7 3.9 43% 76.3 0.0
09 21:15 NE 31 G 44 16.09 Fair CLR 17.4 3.5 40% 76.25 0.0
09 20:55 NE 31 G 41 16.09 Fair CLR 18 2.6 36% 76.2 0.0
09 20:35 NE 31 G 37 16.09 Fair CLR 19.4 1.5 30% 76.12 0.0
09 20:15 E 31 G 39 16.09 Fair CLR 20.4 1.4 28% 76.1 0.0
09 19:55 E 35 G 44 16.09 Fair and Breezy CLR 21.6 1.4 26% 76.07 0.0
09 19:35 NE 35 G 44 16.09 Fair and Breezy CLR 22.5 1.4 25% 76.02 0.0
09 19:15 NE 33 G 46 16.09 Fair and Breezy CLR 23.3 1.8 24% 76.02 0.0
09 18:55 NE 30 G 43 16.09 Fair CLR 22.5 2.1 27.9 22.5 26% 76 0.0
09 18:35 NE 30 G 41 16.09 Fair CLR 23.2 2.8 26% 76 0.0
09 18:15 NE 31 G 44 16.09 Fair CLR 24.3 3.2 25% 25 75.97 0.0
09 17:55 NE 22 G 35 16.09 Fair CLR 26.2 3.3 23% 26 75.95 0.0
09 17:35 NE 24 G 35 16.09 Fair CLR 26.8 3.7 23% 26 75.92 0.0
09 17:15 NE 24 G 31 16.09 Fair CLR 27 3.7 22% 26 75.92 0.0
09 16:55 NE 26 G 37 16.09 Fair CLR 27 3.8 22% 26 75.92 0.0
09 16:35 NE 24 G 31 16.09 Fair CLR 27 3.6 22% 26 75.92 0.0
09 16:15 NE 30 G 39 16.09 Fair CLR 27.4 3.9 22% 26 75.9 0.0
09 15:55 NE 26 G 41 16.09 Fair CLR 27.1 3.9 23% 26 75.9 0.0
09 15:35 N 24 G 33 16.09 Fair CLR 27.7 4.4 22% 27 75.87 0.0
09 15:15 N 28 16.09 Fair CLR 27.2 4.4 23% 26 75.87 0.0
09 14:55 N 20 G 33 16.09 Fair CLR 27.1 4.7 24% 26 75.87 0.0
09 14:35 N 24 G 35 16.09 Fair CLR 26.7 4.6 24% 26 75.87 0.0
09 14:15 NE 26 G 33 16.09 Fair CLR 26.3 5.2 26% 26 75.84 0.0
09 13:55 N 26 G 35 16.09 Fair CLR 26.4 5.1 26% 26 75.84 0.0
09 13:35 N 30 G 44 16.09 Fair CLR 26.6 5.4 26% 26 75.84 0.0
09 13:15 Calm 16.09 Fair CLR 26.4 3.2 22% 26 75.84 0.0
09 12:55 N 7 16.09 Fair CLR 26 3.6 26.1 9.4 24% 26 75.84 0.0
09 12:35 Calm 16.09 Fair CLR 25.2 2.8 23% 25 75.84 0.0
09 12:15 SW 11 16.09 Fair CLR 25.3 3.8 25% 25 75.87 0.0
09 11:55 SW 20 G 28 16.09 Fair CLR 25.3 4.2 26% 25 75.87 0.0
09 11:35 SW 22 G 35 16.09 Fair CLR 23.7 4.5 29% 75.92 0.0
09 11:15 SW 19 G 31 16.09 Fair CLR 23.7 4.1 28% 75.9 0.0
09 10:55 SW 24 G 37 16.09 Fair CLR 23.5 3.6 27% 75.9 0.0
09 10:35 SW 28 G 35 16.09 Fair CLR 23.8 4.3 28% 75.92 0.0
09 10:15 SW 26 G 33 16.09 Fair CLR 22.5 4.6 31% 75.95 0.0
09 09:55 Calm 16.09 Partly Cloudy SCT110 19 6.6 45% 75.95 0.0
09 09:35 S 7 16.09 Mostly Cloudy BKN110 16.7 7.2 54% 75.95 0.0
09 09:15 Calm 16.09 Mostly Cloudy BKN100 15.6 6.9 56% 75.97 0.0
09 08:55 SE 6 16.09 Mostly Cloudy BKN100 14.4 7 61% 76 0.0
09 08:35 E 7 16.09 Overcast OVC100 13.1 7 67% 76 0.0
09 08:15 Calm 16.09 Overcast OVC100 12.6 6.3 66% 76 0.0
09 07:55 Calm 16.09 Mostly Cloudy BKN100 11.5 7 74% 76 0.0
09 07:35 W 7 16.09 Partly Cloudy SCT080 SCT110 11.3 6.1 71% 75.97 0.0
09 07:15 Calm 16.09 Mostly Cloudy SCT080 BKN100 10.7 5.5 71% 75.95 0.0
09 06:55 W 9 16.09 Partly Cloudy SCT110 9 5 9.1 6.3 76% 8 75.95 0.0
09 06:35 SW 9 16.09 Fair CLR 9 5 76% 8 75.92 0.0
09 06:15 W 11 16.09 Fair CLR 8.8 4.5 75% 7 75.95 0.0
09 05:55 W 7 16.09 Fair CLR 7.6 4 78% 7 75.95 0.0
09 05:35 Calm 16.09 Fair CLR 7.6 4 78% 75.92 0.0
09 05:15 W 6 16.09 Fair CLR 7.3 3.7 78% 75.95 0.0
09 04:55 W 6 16.09 Partly Cloudy SCT120 8.3 3.9 74% 75.95 0.0
09 04:35 W 7 16.09 Partly Cloudy SCT110 7.8 4.1 78% 7 75.97 0.0
09 04:15 W 11 16.09 Partly Cloudy SCT110 7.6 4.2 79% 6 75.97 0.0
09 03:55 W 11 16.09 Fair CLR 6.9 3.7 80% 5 75.95 0.0
09 03:35 W 7 16.09 Fair CLR 7.3 3.6 78% 6 75.95 0.0
09 03:15 W 6 16.09 Fair CLR 7.3 3.6 78% 75.95 0.0
09 02:55 W 6 16.09 Fair CLR 7.8 3.6 75% 75.97 0.0
09 02:35 W 6 16.09 Fair CLR 7.6 3.7 77% 75.97 0.0
09 02:15 W 9 16.09 Fair CLR 8.7 3.5 70% 7 76 0.0
09 01:55 W 7 16.09 Fair CLR 9 3.7 70% 8 76 0.0
09 01:35 W 6 16.09 Fair CLR 8 4 76% 76.02 0.0
09 01:15 W 7 16.09 Fair CLR 8.4 3.9 74% 8 76.02 0.0
09 00:55 W 7 16.09 Fair CLR 8.5 4 23.5 8.2 74% 8 76.02 0.0
09 00:35 W 6 16.09 Fair CLR 8.5 4.1 74% 76.02 0.0
09 00:15 W 7 16.09 Fair CLR 8.9 4 72% 8 76.05 0.0
08 23:55 W 7 16.09 Fair CLR 8.5 4 74% 8 76.05 0.0
08 23:35 W 9 16.09 Fair CLR 10.3 3.7 64% 76.05 0.0
08 23:15 W 7 16.09 Fair CLR 11.2 3.5 59% 76.05 0.0
08 22:55 W 7 16.09 Fair CLR 11.5 3.1 57% 76.05 0.0
08 22:35 W 6 16.09 Fair CLR 12.6 2 49% 76.05 0.0
08 22:15 Calm 16.09 Fair CLR 11.7 2.8 55% 76.02 0.0
08 21:55 N 6 16.09 Fair CLR 18 -0.2 29% 76.02 0.0
08 21:35 N 13 16.09 Fair CLR 16.7 0.2 33% 76 0.0
08 21:15 N 13 16.09 Fair CLR 17 0.4 33% 76 0.0
08 20:55 N 17 16.09 Fair CLR 16.4 1.1 36% 75.97 0.0
08 20:35 N 15 16.09 Fair CLR 18.1 1.5 33% 75.97 0.0
08 20:15 N 9 16.09 Fair CLR 21.2 0.1 25% 75.95 0.0
08 19:55 NW 9 16.09 Fair CLR 22.2 -0.4 22% 75.95 0.0
08 19:35 NW 15 16.09 Fair CLR 22.6 -0.6 21% 75.95 0.0
08 19:15 NW 19 G 26 16.09 Fair CLR 23.1 -0.3 21% 75.95 0.0
08 18:55 NW 15 16.09 Partly Cloudy SCT110 23.1 0 25.2 21.3 22% 75.95 0.0
08 18:35 NW 19 G 28 16.09 Partly Cloudy SCT100 24 -0.5 20% 24 75.95 0.0
08 17:55 NW 15 16.09 Partly Cloudy SCT110 24.3 -0.1 20% 25 75.97 0.0
08 17:35 N 22 G 28 16.09 Mostly Cloudy BKN100 24.9 0 19% 25 75.95 0.0
08 17:15 N 20 16.09 Partly Cloudy SCT100 24.1 -0.1 20% 25 75.97 0.0
08 16:55 W 13 G 28 16.09 Partly Cloudy SCT100 24.4 -0.1 20% 25 75.97 0.0
08 16:35 NW 20 G 30 16.09 Partly Cloudy SCT095 23.6 -0.1 21% 76 0.0
08 16:15 N 19 G 37 16.09 Partly Cloudy SCT095 24.4 -0.8 19% 25 76 0.0
08 15:55 W 19 G 31 16.09 Partly Cloudy SCT095 24.4 -0.6 19% 25 76.02 0.0
08 15:35 NW 15 G 31 16.09 Mostly Cloudy BKN095 22.5 -0.5 22% 76.02 0.0
08 15:15 N 20 G 26 16.09 Overcast OVC095 22.4 0.1 23% 76.02 0.0
08 14:35 N 22 G 35 16.09 Partly Cloudy SCT085 23.6 -0.1 21% 76.05 0.0
08 14:15 N 13 G 28 16.09 Partly Cloudy SCT085 22.3 0.1 23% 76.07 0.0
08 13:55 N 26 G 33 16.09 Partly Cloudy SCT080 22.6 1.1 24% 76.07 0.0
08 13:35 N 19 G 30 16.09 Partly Cloudy SCT070 SCT080 21.5 1.3 26% 76.1 0.0
08 13:15 N 17 G 41 16.09 Partly Cloudy SCT070 22.1 2.1 27% 76.1 0.0
08 12:35 N 22 G 43 16.09 Fair CLR 21 0.1 25% 76.12 0.0
08 12:15 N 15 G 33 16.09 Fair CLR 20.8 0.4 26% 76.12 0.0
08 11:55 N 17 G 28 16.09 Fair CLR 20.6 -0.1 25% 76.15 0.0
08 11:35 N 17 16.09 Fair CLR 19.7 -1.7 24% 76.15 0.0
08 11:15 NW 19 G 26 16.09 Fair CLR 18.9 -1 26% 76.15 0.0
08 10:55 N 19 G 28 16.09 Partly Cloudy SCT100 SCT120 17.8 0.6 32% 76.15 0.0
08 10:35 NW 19 G 28 16.09 Partly Cloudy SCT100 18.4 1.2 32% 76.15 0.0
08 10:15 NW 20 16.09 Partly Cloudy SCT110 16.6 2.6 39% 76.15 0.0
08 09:55 N 22 G 31 16.09 Fair CLR 15.1 3 44% 76.12 0.0
08 09:35 NW 17 16.09 Fair CLR 14.5 5.6 55% 76.12 0.0
08 09:15 NW 22 G 28 16.09 Fair CLR 13.6 5.7 59% 76.12 0.0
08 08:35 NW 24 16.09 Fair CLR 12.7 5.9 64% 76.1 0.0
08 08:15 NW 24 16.09 Fair CLR 12.8 6 64% 76.07 0.0
08 07:55 NW 24 16.09 Fair CLR 12.7 6.9 68% 76.05 0.0
08 07:35 NW 30 16.09 Partly Cloudy SCT075 12.4 7 70% 76.02 0.0
08 07:15 NW 20 16.09 Partly Cloudy SCT085 SCT095 12.8 7.4 70% 76 0.0
08 06:55 NW 15 16.09 Overcast SCT075 OVC095 13.8 7.2 15.8 13.5 65% 75.97 0.0
08 06:35 NW 11 16.09 Overcast OVC095 13.9 7.2 64% 75.97 0.0
08 06:15 NW 11 16.09 Overcast OVC095 13.7 7.1 65% 75.97 0.0
08 05:55 NW 13 16.09 Mostly Cloudy BKN095 BKN120 13.8 7.1 64% 75.97 0.0
08 05:35 NW 11 16.09 Partly Cloudy SCT120 13.5 7.1 65% 75.95 0.0
08 05:15 NW 15 16.09 Fair CLR 13.7 7 64% 75.97 0.0
08 04:55 NW 15 16.09 Fair CLR 14 6.8 62% 75.97 0.0
08 04:35 W 15 16.09 Fair CLR 14.3 6.8 61% 76 0.0
08 04:15 W 17 16.09 Partly Cloudy SCT075 14.5 6.8 60% 76 0.0
08 03:55 SW 15 16.09 Mostly Cloudy BKN080 14.4 6.6 60% 76 0.0
08 03:35 W 9 16.09 Mostly Cloudy SCT080 BKN090 BKN110 14.1 6.7 61% 76.02 0.0
08 03:15 W 13 16.09 Partly Cloudy SCT110 15 6 55% 76.02 0.0
08 02:55 SW 11 16.09 Partly Cloudy SCT120 15.3 5.6 53% 76 0.0
08 02:35 W 19 16.09 Partly Cloudy SCT120 14.5 6.1 57% 76 0.0
08 02:15 W 13 16.09 Partly Cloudy SCT100 14.3 6.1 58% 76 0.0
08 01:55 NW 17 16.09 Mostly Cloudy BKN100 15 6 55% 76 0.0
08 01:35 NW 13 16.09 Mostly Cloudy SCT047 SCT070 BKN100 14.9 6.1 56% 75.95 0.0
08 01:15 NW 9 16.09 Mostly Cloudy BKN100 14.6 6.3 58% 75.97 0.0
08 00:55 Calm 16.09 Mostly Cloudy SCT085 BKN100 14.6 6.5 22.9 13.6 59% 75.97 0.0
08 00:35 N 13 16.09 Partly Cloudy SCT110 15.1 6 55% 75.95 0.0
08 00:15 Calm 16.09 Fair CLR 14.5 6.1 57% 75.97 0.0
07 23:55 W 11 16.09 Partly Cloudy SCT110 14.3 5.8 57% 75.97 0.0
07 23:35 SW 7 16.09 Mostly Cloudy BKN110 13.6 6.2 61% 76 0.0
07 23:15 NW 9 16.09 Mostly Cloudy BKN120 14.8 6 56% 75.97 0.0
07 22:55 NW 17 16.09 Mostly Cloudy BKN120 14.7 5.7 55% 75.97 0.0
07 22:35 Calm 16.09 Fair CLR 14.7 5.5 54% 75.95 0.0
07 22:15 NW 11 16.09 Fair CLR 16.1 4.9 48% 75.95 0.0
07 21:55 NW 17 G 26 16.09 Partly Cloudy SCT100 16.9 4.4 44% 75.97 0.0
07 21:35 Calm 16.09 Partly Cloudy SCT110 17.2 4 42% 75.92 0.0
07 21:15 W 6 16.09 Partly Cloudy SCT110 16.8 5.5 47% 75.92 0.0
07 20:55 NW 9 16.09 Fair CLR 18 4.6 41% 75.9 0.0
07 20:35 NW 7 16.09 Fair CLR 18.7 4.8 40% 75.9 0.0
07 20:15 NW 6 16.09 Fair CLR 19.6 4 36% 75.87 0.0
07 19:55 NW 9 16.09 Partly Cloudy SCT110 19.8 3.4 34% 75.87 0.0
07 19:35 NW 13 16.09 Mostly Cloudy BKN110 21.9 2.7 28% 75.87 0.0
07 19:15 NW 13 16.09 Mostly Cloudy BKN110 22.2 2.9 28% 75.87 0.0
07 18:55 NW 17 G 26 16.09 Partly Cloudy SCT120 22.5 1.7 25.1 21.6 25% 75.87 0.0
07 18:35 W 20 G 30 16.09 Fair CLR 22.9 1.4 24% 75.87 0.0
07 18:15 NW 17 16.09 Fair CLR 23.2 1.1 23% 75.87 0.0
07 17:55 NW 17 16.09 Partly Cloudy SCT120 24 1 22% 25 75.87 0.0
07 17:35 NW 15 G 30 16.09 Mostly Cloudy SCT090 BKN120 24.8 1.3 21% 25 75.87 0.0
07 17:15 NW 26 16.09 Partly Cloudy SCT090 23.5 1.2 23% 75.9 0.0
07 16:55 NW 15 16.09 Partly Cloudy SCT100 23.8 0.8 22% 75.9 0.0
07 16:35 NW 22 16.09 Overcast OVC100 22.6 0.6 23% 75.92 0.0
07 16:15 W 19 16.09 Mostly Cloudy BKN100 23.1 0.6 23% 75.92 0.0
07 15:55 W 13 G 28 16.09 Mostly Cloudy BKN100 23.5 0.1 21% 75.92 0.0
07 15:35 W 22 G 28 16.09 Fair CLR 23.8 0 21% 75.95 0.0
07 15:15 NW 22 G 35 16.09 Fair CLR 24.6 0 20% 25 75.97 0.0
07 14:55 NW 17 16.09 Fair CLR 23.3 -0.3 21% 75.97 0.0
07 14:35 NW 19 16.09 Fair CLR 23.3 0.9 23% 76 0.0
07 14:15 NW 15 16.09 Fair CLR 23.5 0.5 22% 76 0.0
07 13:55 NW 13 16.09 Fair CLR 22.6 1 24% 76.02 0.0
07 13:35 W 15 G 26 16.09 Fair CLR 22.1 0.9 25% 76.02 0.0
07 13:15 NW 17 G 26 16.09 Fair CLR 21.9 0.9 25% 76.05 0.0
07 12:55 W 17 16.09 Fair CLR 21.5 1.2 21.5 3.5 26% 76.05 0.0
07 12:35 NW 20 G 31 16.09 Fair CLR 21 1.6 28% 76.07 0.0
07 12:15 NW 28 G 41 16.09 Fair CLR 20.8 1.4 28% 76.1 0.0
07 11:55 NW 26 G 37 16.09 Partly Cloudy SCT110 20.8 1.8 28% 76.1 0.0
07 11:35 NW 30 G 41 16.09 Partly Cloudy SCT110 20.5 1.4 28% 76.1 0.0
07 11:15 NW 31 G 43 16.09 Fair CLR 19.7 1.7 30% 76.1 0.0
07 10:55 NW 30 G 35 16.09 Fair CLR 18.8 1.6 32% 76.12 0.0
07 10:35 W 30 G 39 16.09 Fair CLR 18 1.2 33% 76.12 0.0
07 10:15 W 28 G 39 16.09 Fair CLR 16.8 0.7 34% 76.12 0.0
07 09:55 W 30 G 39 16.09 Fair CLR 15.7 2.1 40% 76.12 0.0
Date Time (cdt) Wind (kph) Vis. (km) Weather Sky Cond. Air Dwpt Max. Min. Relative Humidity Wind Chill (°C) Heat Index (°C) altimeter (cm) sea level (mb) 1 hr 3 hr 6 hr
6 hour
Temperature (ºC) Pressure Precipitation (cm)